Time;durP1;ratioP1;P1;durP2;ratioP2;P2;SDS_P1;SDS_P2;PMS_P1;PMS_P2;Temp;Humidity;BMP_temperature;BMP_pressure;BME280_temperature;BME280_humidity;BME280_pressure;Samples;Min_cycle;Max_cycle;Signal;HPM_P1;HPM_P2
2022/01/22 00:01:52;;;;;;;20.83;12.90;;;5.30;99.90;;;;;;5076815;28;20445;-66
2022/01/22 00:04:19;;;;;;;18.50;14.10;;;5.30;99.90;;;;;;5076859;28;20464;-66
2022/01/22 00:06:46;;;;;;;20.60;13.43;;;5.30;99.90;;;;;;5076846;28;20472;-66
2022/01/22 00:09:13;;;;;;;26.83;15.27;;;5.30;99.90;;;;;;5076490;28;20506;-66
2022/01/22 00:11:50;;;;;;;23.30;15.00;;;5.40;99.90;;;;;;5076678;28;20440;-66
2022/01/22 00:14:26;;;;;;;22.83;13.50;;;5.30;99.90;;;;;;5076311;28;20836;-66
2022/01/22 00:16:56;;;;;;;25.73;14.17;;;5.30;99.90;;;;;;5076609;28;20795;-66
2022/01/22 00:19:24;;;;;;;23.30;15.60;;;5.40;99.90;;;;;;5076188;28;20982;-66
2022/01/22 00:21:51;;;;;;;27.13;15.50;;;5.40;99.90;;;;;;5076447;28;20445;-66
2022/01/22 00:24:18;;;;;;;29.90;14.83;;;5.40;99.90;;;;;;5076384;28;20570;-65
2022/01/22 00:26:46;;;;;;;17.50;13.87;;;5.40;99.90;;;;;;5076129;28;20538;-66
2022/01/22 00:29:15;;;;;;;28.07;14.47;;;5.40;99.90;;;;;;5076398;28;20453;-66
2022/01/22 00:31:42;;;;;;;25.63;14.70;;;5.50;99.90;;;;;;5076385;28;20440;-66
2022/01/22 00:34:10;;;;;;;23.53;15.20;;;5.50;99.90;;;;;;5076184;28;20444;-65
2022/01/22 00:36:39;;;;;;;17.50;14.63;;;5.50;99.90;;;;;;5075951;28;20460;-66
2022/01/22 00:39:06;;;;;;;21.50;14.17;;;5.50;99.90;;;;;;5076264;28;20484;-66
2022/01/22 00:41:33;;;;;;;24.30;16.70;;;5.50;99.90;;;;;;5075643;28;20964;-66
2022/01/22 00:44:00;;;;;;;27.43;14.87;;;5.50;99.90;;;;;;5075938;28;20445;-66
2022/01/22 00:46:27;;;;;;;24.87;15.60;;;5.50;99.90;;;;;;5076239;28;20448;-66
2022/01/22 00:48:54;;;;;;;26.13;16.27;;;5.40;99.90;;;;;;5075896;28;20436;-66
2022/01/22 00:51:22;;;;;;;22.20;16.50;;;5.40;99.90;;;;;;5075491;28;20433;-66
2022/01/22 00:53:49;;;;;;;25.63;18.53;;;5.40;99.90;;;;;;5075933;28;20441;-66
2022/01/22 00:56:16;;;;;;;27.90;17.50;;;5.40;99.90;;;;;;5075851;28;20465;-66
2022/01/22 00:58:43;;;;;;;22.37;17.63;;;5.40;99.90;;;;;;5075704;28;20448;-66
2022/01/22 01:01:10;;;;;;;26.73;18.57;;;5.30;99.90;;;;;;5075587;28;20978;-65
2022/01/22 01:03:36;;;;;;;33.70;19.47;;;5.20;99.90;;;;;;5075366;28;20891;-66
2022/01/22 01:06:05;;;;;;;31.77;19.27;;;5.20;99.90;;;;;;5075347;28;20480;-66
2022/01/22 01:08:35;;;;;;;36.03;19.50;;;5.20;99.90;;;;;;5075702;28;20453;-66
2022/01/22 01:11:02;;;;;;;34.83;21.40;;;5.20;99.90;;;;;;5075989;28;20452;-66
2022/01/22 01:13:33;;;;;;;29.17;20.97;;;5.20;99.90;;;;;;5075389;28;20441;-66
2022/01/22 01:16:03;;;;;;;30.90;20.53;;;5.30;99.90;;;;;;5075671;28;20469;-65
2022/01/22 01:32:21;;;;;;;29.90;22.43;;;5.10;99.90;;;;;;5075687;28;20938;-66
2022/01/22 01:34:50;;;;;;;35.13;21.40;;;5.10;99.90;;;;;;5074869;28;20848;-66
2022/01/22 01:37:19;;;;;;;30.70;22.30;;;5.00;99.90;;;;;;5075378;28;20471;-66
2022/01/22 01:39:52;;;;;;;35.30;24.13;;;5.10;99.90;;;;;;5075307;28;20481;-66
2022/01/22 01:42:24;;;;;;;35.33;25.90;;;5.00;99.90;;;;;;5075359;28;20437;-66
2022/01/22 01:44:51;;;;;;;36.80;24.30;;;5.00;99.90;;;;;;5075331;28;20472;-66
2022/01/22 01:47:19;;;;;;;36.73;25.67;;;5.00;99.90;;;;;;5075446;28;20448;-66
2022/01/22 01:49:46;;;;;;;32.10;25.00;;;5.00;99.90;;;;;;5075278;28;20535;-66
2022/01/22 01:52:19;;;;;;;40.93;27.50;;;5.00;99.90;;;;;;5075127;28;20448;-66
2022/01/22 01:55:00;;;;;;;35.00;27.00;;;5.10;99.90;;;;;;5075273;28;20492;-66
2022/01/22 01:57:39;;;;;;;41.67;28.03;;;5.00;99.90;;;;;;5074906;28;20437;-66
2022/01/22 02:00:15;;;;;;;49.63;29.57;;;5.00;99.90;;;;;;5075595;28;20469;-66
2022/01/22 02:02:42;;;;;;;41.27;28.97;;;5.00;99.90;;;;;;5074704;28;20922;-66
2022/01/22 02:05:11;;;;;;;41.80;29.27;;;5.00;99.90;;;;;;5074829;28;20472;-65
2022/01/22 02:07:40;;;;;;;44.50;30.37;;;5.00;99.90;;;;;;5075370;28;20464;-66
2022/01/22 02:10:13;;;;;;;41.47;30.83;;;5.00;99.90;;;;;;5074962;28;20495;-66
2022/01/22 02:27:17;;;;;;;46.03;30.13;;;5.10;99.90;;;;;;5075250;28;20427;-66
2022/01/22 02:29:44;;;;;;;50.43;32.40;;;5.00;99.90;;;;;;5074270;28;20540;-66
2022/01/22 02:32:42;;;;;;;48.90;31.23;;;5.00;99.90;;;;;;5074225;28;20969;-66
2022/01/22 02:35:14;;;;;;;54.73;30.97;;;5.00;99.90;;;;;;5073879;28;20567;-66
2022/01/22 02:37:47;;;;;;;51.60;31.10;;;5.00;99.90;;;;;;5074540;28;20433;-66
2022/01/22 02:40:21;;;;;;;48.27;32.53;;;5.00;99.90;;;;;;5074393;28;20602;-66
2022/01/22 02:42:47;;;;;;;50.47;30.87;;;5.00;99.90;;;;;;5074277;28;20435;-66
2022/01/22 02:45:18;;;;;;;51.77;32.83;;;5.00;99.90;;;;;;5074273;28;20469;-66
2022/01/22 02:47:45;;;;;;;58.80;31.73;;;5.00;99.90;;;;;;5074414;28;20455;-66
2022/01/22 02:50:13;;;;;;;54.33;32.13;;;5.00;99.90;;;;;;5077544;28;20527;-66
2022/01/22 02:52:39;;;;;;;51.60;32.93;;;5.00;99.90;;;;;;5078284;28;20922;-66
2022/01/22 02:55:11;;;;;;;47.73;33.50;;;5.00;99.90;;;;;;5078458;28;20464;-66
2022/01/22 02:57:40;;;;;;;49.27;32.60;;;5.00;99.90;;;;;;5079411;28;20433;-66
2022/01/22 03:00:11;;;;;;;49.07;31.70;;;5.10;99.90;;;;;;5078493;28;20480;-66
2022/01/22 03:02:38;;;;;;;46.77;29.70;;;5.10;99.90;;;;;;5078975;28;20441;-66
2022/01/22 03:05:05;;;;;;;46.10;30.93;;;5.10;99.90;;;;;;5078070;28;20475;-66
2022/01/22 03:07:32;;;;;;;47.80;30.30;;;5.00;99.90;;;;;;5077814;28;20461;-66
2022/01/22 03:10:02;;;;;;;48.20;29.63;;;5.00;99.90;;;;;;5078199;28;20447;-66
2022/01/22 03:12:50;;;;;;;42.23;29.37;;;5.10;99.90;;;;;;5078191;28;20838;-66
2022/01/22 03:15:35;;;;;;;46.03;30.43;;;5.10;99.90;;;;;;5078410;28;20558;-65
2022/01/22 03:18:06;;;;;;;40.17;28.40;;;5.10;99.90;;;;;;5078013;28;20519;-66
2022/01/22 03:20:48;;;;;;;42.77;29.73;;;5.10;99.90;;;;;;5078102;28;20467;-66
2022/01/22 03:28:53;;;;;;;50.30;29.33;;;5.20;99.90;;;;;;5077307;28;20535;-66
2022/01/22 03:31:20;;;;;;;45.73;28.87;;;5.20;99.90;;;;;;5077344;28;20432;-66
2022/01/22 03:33:47;;;;;;;52.10;31.93;;;5.20;99.90;;;;;;5077675;28;20429;-66
2022/01/22 03:36:14;;;;;;;47.93;29.63;;;5.20;99.90;;;;;;5077594;28;20460;-66
2022/01/22 03:38:41;;;;;;;41.20;28.83;;;5.20;99.90;;;;;;5077140;28;20946;-66
2022/01/22 03:41:08;;;;;;;42.40;30.93;;;5.30;99.90;;;;;;5077348;28;21016;-66
2022/01/22 03:43:35;;;;;;;41.13;28.93;;;5.20;99.90;;;;;;5077420;28;20445;-66
2022/01/22 03:46:03;;;;;;;48.33;31.13;;;5.20;99.90;;;;;;5076944;28;20981;-66
2022/01/22 03:48:30;;;;;;;47.20;30.80;;;5.30;99.90;;;;;;5077674;28;20444;-67
2022/01/22 03:50:57;;;;;;;43.33;30.83;;;5.30;99.90;;;;;;5078459;28;20452;-67
2022/01/22 03:53:23;;;;;;;42.77;28.43;;;5.30;99.90;;;;;;5076961;28;20476;-67
2022/01/22 03:56:01;;;;;;;45.20;30.43;;;5.40;99.90;;;;;;5076898;28;20863;-66
2022/01/22 03:58:28;;;;;;;45.20;28.67;;;5.30;99.90;;;;;;5077104;28;20451;-66
2022/01/22 04:01:13;;;;;;;50.97;30.90;;;5.30;99.90;;;;;;5076716;28;20476;-66
2022/01/22 04:03:43;;;;;;;50.87;30.00;;;5.30;99.90;;;;;;5076813;28;20911;-66
2022/01/22 04:06:40;;;;;;;46.07;29.13;;;5.20;99.90;;;;;;5076620;28;20567;-66
2022/01/22 04:09:09;;;;;;;41.73;29.63;;;5.30;99.90;;;;;;5076656;28;20813;-67
2022/01/22 04:11:40;;;;;;;46.63;29.60;;;5.30;99.90;;;;;;5076639;28;20444;-67
2022/01/22 04:14:14;;;;;;;54.07;30.77;;;5.30;99.90;;;;;;5076728;28;20429;-67
2022/01/22 04:16:54;;;;;;;43.07;29.17;;;5.30;99.90;;;;;;5076427;28;20524;-67
2022/01/22 04:24:52;;;;;;;44.07;32.93;;;5.30;99.90;;;;;;5076295;28;20439;-66
2022/01/22 04:27:23;;;;;;;45.20;30.53;;;5.40;99.90;;;;;;5076372;28;20449;-66
2022/01/22 04:29:50;;;;;;;46.23;30.03;;;5.40;99.90;;;;;;5076455;28;20459;-66
2022/01/22 04:32:17;;;;;;;42.40;29.77;;;5.40;99.90;;;;;;5076259;28;20926;-67
2022/01/22 04:34:45;;;;;;;42.57;29.77;;;5.40;99.90;;;;;;5076416;28;20472;-66
2022/01/22 04:37:12;;;;;;;45.20;30.73;;;5.40;99.90;;;;;;5076126;28;20448;-66
2022/01/22 04:39:39;;;;;;;49.87;32.57;;;5.40;99.90;;;;;;5076445;28;20452;-67
2022/01/22 04:42:06;;;;;;;51.60;30.23;;;5.40;99.90;;;;;;5076200;28;20481;-67
2022/01/22 04:44:38;;;;;;;43.30;31.63;;;5.50;99.90;;;;;;5076145;28;20460;-66
2022/01/22 04:47:18;;;;;;;42.93;30.90;;;5.50;99.90;;;;;;5075964;28;20766;-66
2022/01/22 04:52:38;;;;;;;61.33;34.03;;;5.40;99.90;;;;;;5075731;28;20873;-67
2022/01/22 04:55:06;;;;;;;49.30;32.67;;;5.40;99.90;;;;;;5075773;28;20463;-67
2022/01/22 04:57:34;;;;;;;47.73;32.90;;;5.50;99.90;;;;;;5075497;28;20452;-67
2022/01/22 05:00:02;;;;;;;48.23;34.50;;;5.50;99.90;;;;;;5075772;28;20453;-67
2022/01/22 05:02:28;;;;;;;47.80;32.63;;;5.50;99.90;;;;;;5075350;28;21024;-67
2022/01/22 05:04:56;;;;;;;49.00;34.63;;;5.60;99.90;;;;;;5075443;28;20476;-66
2022/01/22 05:07:23;;;;;;;51.47;35.60;;;5.60;99.90;;;;;;5075224;28;20472;-66
2022/01/22 05:09:50;;;;;;;45.90;32.40;;;5.60;99.90;;;;;;5075742;28;20441;-67
2022/01/22 05:12:16;;;;;;;50.47;35.37;;;5.60;99.90;;;;;;5075835;28;20790;-67
2022/01/22 05:14:44;;;;;;;60.23;33.77;;;5.60;99.90;;;;;;5074910;28;20468;-66
2022/01/22 05:17:11;;;;;;;44.60;33.53;;;5.60;99.90;;;;;;5075510;28;20460;-67
2022/01/22 05:19:47;;;;;;;47.07;34.10;;;5.60;99.90;;;;;;5075206;28;20451;-67
2022/01/22 05:22:28;;;;;;;55.07;35.50;;;5.70;99.90;;;;;;5075351;28;20470;-67
2022/01/22 05:24:59;;;;;;;45.83;33.90;;;5.70;99.90;;;;;;5075047;28;20468;-66
2022/01/22 05:27:47;;;;;;;45.80;32.87;;;5.70;99.90;;;;;;5075243;28;20437;-66
2022/01/22 05:30:37;;;;;;;54.47;35.83;;;5.70;99.90;;;;;;5075727;28;20479;-66
2022/01/22 05:33:16;;;;;;;51.57;33.30;;;5.70;99.90;;;;;;5074886;28;20533;-66
2022/01/22 05:38:33;;;;;;;50.33;34.20;;;5.70;99.90;;;;;;5075050;28;20937;-67
2022/01/22 05:40:59;;;;;;;44.60;33.13;;;5.80;99.90;;;;;;5074804;28;20476;-67
2022/01/22 05:43:26;;;;;;;52.17;34.27;;;5.80;99.90;;;;;;5075039;28;20453;-67
2022/01/22 05:45:54;;;;;;;56.10;35.20;;;5.80;99.90;;;;;;5074628;28;20469;-66
2022/01/22 05:48:21;;;;;;;51.40;35.20;;;5.70;99.90;;;;;;5074777;28;20498;-66
2022/01/22 05:50:51;;;;;;;47.23;35.63;;;5.80;99.90;;;;;;5074737;28;20448;-66
2022/01/22 05:53:34;;;;;;;56.03;35.37;;;5.80;99.90;;;;;;5074600;28;20448;-66
2022/01/22 06:01:45;;;;;;;53.77;35.00;;;5.80;99.90;;;;;;5032782;28;20473;-66
2022/01/22 06:04:12;;;;;;;48.83;34.47;;;5.90;99.90;;;;;;5032653;28;20446;-66
2022/01/22 06:06:38;;;;;;;53.90;37.27;;;5.90;99.90;;;;;;5050666;28;20468;-66
2022/01/22 06:09:08;;;;;;;56.33;37.00;;;5.90;99.90;;;;;;5074693;28;20452;-66
2022/01/22 06:11:51;;;;;;;59.33;37.57;;;5.90;99.90;;;;;;5074509;28;20441;-67
2022/01/22 06:14:18;;;;;;;49.00;35.40;;;5.90;99.90;;;;;;5075828;28;20461;-66
2022/01/22 06:16:45;;;;;;;52.87;37.43;;;5.80;99.90;;;;;;5074577;28;20464;-66
2022/01/22 06:19:12;;;;;;;46.33;33.70;;;5.80;99.90;;;;;;5074604;28;20444;-66
2022/01/22 06:21:38;;;;;;;58.27;36.33;;;5.80;99.90;;;;;;5074752;28;20832;-66
2022/01/22 06:24:06;;;;;;;57.57;37.57;;;5.80;99.90;;;;;;5073654;28;20453;-66
2022/01/22 06:26:35;;;;;;;63.60;37.30;;;5.80;99.90;;;;;;5074654;28;20444;-66
2022/01/22 06:29:03;;;;;;;56.13;37.90;;;5.80;99.90;;;;;;5074487;28;20494;-67
2022/01/22 06:31:30;;;;;;;57.17;37.53;;;5.80;99.90;;;;;;5074849;28;20441;-67
2022/01/22 06:33:58;;;;;;;58.60;38.40;;;5.80;99.90;;;;;;5074297;28;20453;-67
2022/01/22 06:36:24;;;;;;;65.67;38.43;;;5.70;99.90;;;;;;5074038;28;20949;-67
2022/01/22 06:38:56;;;;;;;65.47;38.33;;;5.70;99.90;;;;;;5074202;28;20451;-67
2022/01/22 06:44:08;;;;;;;57.00;36.40;;;5.70;99.90;;;;;;5074217;28;20447;-66
2022/01/22 06:46:35;;;;;;;55.27;36.87;;;5.70;99.90;;;;;;5074271;28;20445;-67
2022/01/22 06:49:02;;;;;;;62.60;36.53;;;5.80;99.90;;;;;;5074377;28;20452;-67
2022/01/22 06:51:29;;;;;;;61.23;39.10;;;5.80;99.90;;;;;;5074208;28;20440;-67
2022/01/22 06:53:56;;;;;;;71.00;39.70;;;5.80;99.90;;;;;;5074303;28;20448;-66
2022/01/22 06:56:24;;;;;;;63.47;36.80;;;5.80;99.90;;;;;;5074810;28;20455;-67
2022/01/22 06:58:51;;;;;;;56.07;35.23;;;5.80;99.90;;;;;;5075187;28;20444;-67
2022/01/22 07:01:19;;;;;;;60.63;38.47;;;5.80;99.90;;;;;;5074154;28;20484;-66
2022/01/22 07:03:46;;;;;;;54.93;37.53;;;5.90;99.90;;;;;;5074297;28;20441;-66
2022/01/22 07:06:12;;;;;;;57.47;38.07;;;5.90;99.90;;;;;;5074008;28;20484;-66
2022/01/22 07:08:39;;;;;;;61.57;41.10;;;5.80;99.90;;;;;;5074439;28;20444;-67
2022/01/22 07:11:06;;;;;;;62.23;40.10;;;5.90;99.90;;;;;;5075031;28;20449;-66
2022/01/22 07:13:33;;;;;;;60.70;39.00;;;5.90;99.90;;;;;;5074501;28;20487;-66
2022/01/22 07:16:00;;;;;;;67.07;39.10;;;5.90;99.90;;;;;;5074721;28;20473;-66
2022/01/22 07:18:29;;;;;;;65.57;40.83;;;5.90;99.90;;;;;;5074874;28;20452;-66
2022/01/22 07:20:56;;;;;;;67.07;38.53;;;5.90;99.90;;;;;;5074681;28;20811;-67
2022/01/22 07:23:54;;;;;;;64.37;38.17;;;5.80;99.90;;;;;;5075324;28;20433;-66
2022/01/22 07:26:18;;;;;;;64.23;38.43;;;5.90;99.90;;;;;;5073482;28;20548;-66
2022/01/22 07:28:45;;;;;;;63.70;41.00;;;5.90;99.90;;;;;;5073780;28;20437;-67
2022/01/22 07:31:12;;;;;;;62.00;39.87;;;6.00;99.90;;;;;;5073857;28;20441;-67
2022/01/22 07:33:40;;;;;;;70.70;41.27;;;5.90;99.90;;;;;;5074091;28;20938;-66
2022/01/22 07:36:07;;;;;;;61.87;36.83;;;5.90;99.90;;;;;;5077423;28;20826;-66
2022/01/22 07:38:37;;;;;;;58.97;38.97;;;6.00;99.90;;;;;;5078123;28;20449;-67
2022/01/22 07:41:04;;;;;;;70.47;39.10;;;6.00;99.90;;;;;;5078406;28;20471;-66
2022/01/22 07:43:31;;;;;;;66.30;42.00;;;6.00;99.90;;;;;;5079038;28;20452;-66
2022/01/22 07:45:58;;;;;;;69.93;41.60;;;6.00;99.90;;;;;;5078831;28;20508;-67
2022/01/22 07:48:25;;;;;;;73.70;42.27;;;6.00;99.90;;;;;;5078161;28;20445;-66
2022/01/22 07:50:53;;;;;;;67.83;40.80;;;6.00;99.90;;;;;;5078405;28;20444;-67
2022/01/22 07:53:19;;;;;;;76.87;41.60;;;6.00;99.90;;;;;;5078381;28;20809;-67
2022/01/22 07:55:46;;;;;;;75.03;42.90;;;6.10;99.90;;;;;;5078180;28;20460;-67
2022/01/22 07:58:14;;;;;;;67.23;41.43;;;6.10;99.90;;;;;;5078695;28;20943;-66
2022/01/22 08:00:41;;;;;;;65.23;42.13;;;6.10;99.90;;;;;;5078378;28;20801;-66
2022/01/22 08:03:08;;;;;;;68.50;41.80;;;6.10;99.90;;;;;;5080011;28;20494;-66
2022/01/22 08:05:35;;;;;;;75.17;45.03;;;6.10;99.90;;;;;;5078862;28;20469;-63
2022/01/22 08:08:04;;;;;;;72.97;42.67;;;6.10;99.90;;;;;;5078633;28;20429;-63
2022/01/22 08:10:31;;;;;;;65.93;41.87;;;6.00;99.90;;;;;;5078611;28;20448;-63
2022/01/22 08:12:57;;;;;;;74.00;42.40;;;6.10;99.90;;;;;;5078244;28;20440;-63
2022/01/22 08:15:24;;;;;;;74.83;42.87;;;6.10;99.90;;;;;;5079151;28;20472;-63
2022/01/22 08:17:51;;;;;;;78.50;43.30;;;6.10;99.90;;;;;;5079865;28;20494;-63
2022/01/22 08:20:20;;;;;;;68.57;42.03;;;6.10;99.90;;;;;;5078039;28;20441;-63
2022/01/22 08:22:48;;;;;;;69.00;39.77;;;6.20;99.90;;;;;;5078218;28;20838;-63
2022/01/22 08:25:16;;;;;;;69.60;40.93;;;6.20;99.90;;;;;;5078148;28;20514;-64
2022/01/22 08:28:52;;;;;;;69.20;41.27;;;6.10;99.90;;;;;;5078492;28;20425;-63
2022/01/22 08:30:30;;;;;;;62.67;41.10;;;6.10;99.90;;;;;;5078013;28;20820;-63
2022/01/22 08:33:19;;;;;;;66.43;40.57;;;6.10;99.90;;;;;;5077828;28;20448;-63
2022/01/22 08:35:54;;;;;;;63.70;39.10;;;6.10;99.90;;;;;;5077728;28;20463;-63
2022/01/22 08:38:21;;;;;;;68.93;42.13;;;6.10;99.90;;;;;;5077949;28;20429;-63
2022/01/22 08:40:49;;;;;;;70.47;44.53;;;6.10;99.90;;;;;;5078561;28;20444;-63
2022/01/22 08:43:17;;;;;;;66.37;42.70;;;6.10;99.90;;;;;;5078614;28;20485;-63
2022/01/22 08:45:43;;;;;;;73.87;41.63;;;6.10;99.90;;;;;;5079060;28;20467;-63
2022/01/22 08:48:10;;;;;;;67.27;41.67;;;6.10;99.90;;;;;;5078662;28;20449;-63
2022/01/22 08:50:37;;;;;;;72.20;41.40;;;6.10;99.90;;;;;;5078560;28;20452;-63
2022/01/22 08:53:04;;;;;;;59.23;39.63;;;6.10;99.90;;;;;;5076044;28;20439;-64
2022/01/22 08:55:31;;;;;;;62.77;40.77;;;6.10;99.90;;;;;;5077092;28;20469;-64
2022/01/22 08:57:59;;;;;;;63.40;40.80;;;6.20;99.90;;;;;;5076990;28;20429;-64
2022/01/22 09:00:26;;;;;;;61.47;39.90;;;6.20;99.90;;;;;;5077514;28;20451;-63
2022/01/22 09:02:53;;;;;;;60.33;38.47;;;6.20;99.90;;;;;;5075426;28;20484;-63
2022/01/22 09:05:20;;;;;;;62.87;40.17;;;6.20;99.90;;;;;;5075254;28;20823;-63
2022/01/22 09:07:47;;;;;;;61.17;37.80;;;6.20;99.90;;;;;;5075296;28;20482;-63
2022/01/22 09:10:14;;;;;;;66.90;40.80;;;6.20;99.90;;;;;;5074834;28;20952;-63
2022/01/22 09:12:41;;;;;;;62.30;38.20;;;6.20;99.90;;;;;;5074939;28;20467;-63
2022/01/22 09:15:10;;;;;;;60.43;39.90;;;6.20;99.90;;;;;;5074818;28;20469;-63
2022/01/22 09:17:37;;;;;;;58.87;37.90;;;6.20;99.90;;;;;;5074860;28;20448;-63
2022/01/22 09:20:09;;;;;;;61.73;39.67;;;6.20;99.90;;;;;;5074840;28;20479;-63
2022/01/22 09:22:36;;;;;;;60.63;39.50;;;6.20;99.90;;;;;;5074770;28;20568;-63
2022/01/22 09:25:03;;;;;;;69.53;40.77;;;6.30;99.90;;;;;;5074586;28;21032;-64
2022/01/22 09:27:30;;;;;;;64.50;39.07;;;6.30;99.90;;;;;;5074746;28;20449;-63
2022/01/22 09:29:56;;;;;;;62.70;41.00;;;6.30;99.90;;;;;;5074739;28;20444;-63
2022/01/22 09:32:24;;;;;;;63.27;38.50;;;6.30;99.90;;;;;;5074534;28;20445;-63
2022/01/22 09:34:51;;;;;;;62.13;39.07;;;6.30;99.90;;;;;;5074488;28;20476;-63
2022/01/22 09:37:18;;;;;;;62.13;39.60;;;6.40;99.90;;;;;;5074519;28;20440;-63
2022/01/22 09:39:46;;;;;;;65.93;39.60;;;6.40;99.90;;;;;;5074682;28;20444;-63
2022/01/22 09:42:15;;;;;;;60.30;39.47;;;6.30;99.90;;;;;;5074448;28;20488;-63
2022/01/22 09:44:43;;;;;;;68.07;40.07;;;6.40;99.90;;;;;;5074394;28;20472;-63
2022/01/22 09:47:11;;;;;;;65.30;41.57;;;6.30;99.90;;;;;;5074316;28;20489;-64
2022/01/22 09:49:39;;;;;;;69.63;40.87;;;6.40;99.90;;;;;;5074845;28;20445;-63
2022/01/22 09:52:07;;;;;;;66.27;42.10;;;6.40;99.90;;;;;;5074458;28;20441;-63
2022/01/22 09:54:33;;;;;;;62.70;37.80;;;6.40;99.90;;;;;;5074115;28;20472;-64
2022/01/22 09:57:03;;;;;;;59.77;38.17;;;6.40;99.90;;;;;;5074330;28;20467;-64
2022/01/22 09:59:36;;;;;;;61.50;39.40;;;6.50;99.90;;;;;;5073927;28;20452;-64
2022/01/22 10:02:20;;;;;;;55.20;38.37;;;6.50;99.90;;;;;;5073473;28;20449;-64
2022/01/22 10:04:52;;;;;;;60.40;38.73;;;6.50;99.90;;;;;;5073573;28;20468;-64
2022/01/22 10:07:21;;;;;;;58.17;37.80;;;6.50;99.90;;;;;;5071802;28;20456;-64
2022/01/22 10:09:58;;;;;;;64.73;40.07;;;6.60;99.90;;;;;;5073915;28;20528;-64
2022/01/22 10:12:26;;;;;;;59.77;39.57;;;6.70;99.90;;;;;;5073447;28;20930;-64
2022/01/22 10:15:10;;;;;;;59.60;38.97;;;6.70;99.90;;;;;;5074336;28;20491;-64
2022/01/22 10:17:42;;;;;;;58.27;37.70;;;6.80;99.90;;;;;;5073740;28;20452;-64
2022/01/22 10:20:33;;;;;;;59.00;36.57;;;6.80;99.90;;;;;;5073669;28;20424;-64
2022/01/22 10:23:02;;;;;;;59.03;38.17;;;6.80;99.90;;;;;;5073595;28;20491;-64
2022/01/22 10:25:34;;;;;;;56.20;35.93;;;6.80;99.90;;;;;;5073510;28;20496;-64
2022/01/22 10:28:03;;;;;;;56.80;35.57;;;7.00;99.90;;;;;;5073569;28;20437;-64
2022/01/22 10:30:36;;;;;;;48.20;33.63;;;7.00;99.90;;;;;;5073185;28;20861;-64
2022/01/22 10:36:12;;;;;;;50.20;35.93;;;7.10;99.90;;;;;;5073165;28;20534;-64
2022/01/22 10:38:41;;;;;;;43.57;32.10;;;7.30;99.90;;;;;;5073067;28;20448;-64
2022/01/22 10:41:08;;;;;;;47.73;33.63;;;7.40;99.90;;;;;;5073413;28;20444;-64
2022/01/22 10:43:41;;;;;;;45.73;31.83;;;7.50;99.90;;;;;;5073282;28;20476;-64
2022/01/22 10:46:14;;;;;;;43.63;31.93;;;7.60;99.90;;;;;;5073351;28;20473;-64
2022/01/22 10:48:43;;;;;;;45.20;32.03;;;7.70;99.90;;;;;;5073369;28;20437;-64
2022/01/22 10:51:13;;;;;;;42.43;31.00;;;7.80;99.90;;;;;;5073344;28;20836;-64
2022/01/22 10:53:43;;;;;;;43.23;31.00;;;7.80;99.90;;;;;;5073273;28;20440;-64
2022/01/22 10:56:12;;;;;;;43.90;30.10;;;7.80;99.90;;;;;;5072954;28;21013;-64
2022/01/22 10:58:53;;;;;;;39.23;29.10;;;7.90;99.90;;;;;;5073329;28;20449;-65
2022/01/22 11:01:20;;;;;;;44.70;30.60;;;7.80;99.90;;;;;;5073269;28;20429;-64
2022/01/22 11:03:47;;;;;;;55.40;29.30;;;7.80;99.90;;;;;;5072790;28;20476;-64
2022/01/22 11:06:27;;;;;;;47.00;30.63;;;7.80;99.90;;;;;;5072811;28;20491;-64
2022/01/22 11:08:55;;;;;;;52.70;31.10;;;7.60;99.90;;;;;;5073224;28;20429;-64
2022/01/22 11:11:22;;;;;;;42.47;30.57;;;7.50;99.90;;;;;;5076651;28;20444;-64
2022/01/22 11:13:49;;;;;;;62.63;33.07;;;7.50;99.90;;;;;;5077119;28;20440;-64
2022/01/22 11:16:17;;;;;;;47.20;34.07;;;7.60;99.90;;;;;;5077020;28;20472;-65
2022/01/22 11:18:48;;;;;;;52.27;35.30;;;7.50;99.90;;;;;;5077079;28;20566;-64
2022/01/22 11:21:16;;;;;;;46.30;32.67;;;7.40;99.90;;;;;;5077055;28;20440;-64
2022/01/22 11:23:45;;;;;;;49.60;33.00;;;7.40;99.90;;;;;;5076887;28;20487;-64
2022/01/22 11:26:14;;;;;;;52.60;34.20;;;7.40;99.90;;;;;;5076812;28;20472;-64
2022/01/22 11:28:41;;;;;;;54.47;31.73;;;7.30;99.90;;;;;;5076790;28;20440;-64
2022/01/22 11:31:10;;;;;;;46.13;31.30;;;7.40;99.90;;;;;;5076774;28;20448;-64
2022/01/22 11:33:40;;;;;;;57.20;33.37;;;7.40;99.90;;;;;;5076774;28;20444;-64
2022/01/22 11:36:14;;;;;;;49.33;34.10;;;7.40;99.90;;;;;;5076314;28;20472;-64
2022/01/22 11:38:51;;;;;;;48.30;34.30;;;7.40;99.90;;;;;;5076670;28;20425;-64
2022/01/22 11:41:21;;;;;;;50.70;33.63;;;7.30;99.90;;;;;;5076590;28;20432;-64
2022/01/22 11:44:07;;;;;;;52.90;34.50;;;7.30;99.90;;;;;;5076421;28;20490;-64
2022/01/22 11:46:37;;;;;;;48.80;34.80;;;7.40;99.90;;;;;;5076241;28;20474;-64
2022/01/22 11:49:18;;;;;;;59.03;36.83;;;7.40;99.90;;;;;;5076439;28;20449;-64
2022/01/22 11:51:47;;;;;;;58.47;34.67;;;7.40;99.90;;;;;;5076458;28;20440;-64
2022/01/22 11:54:17;;;;;;;52.30;32.27;;;7.40;99.90;;;;;;5076028;28;20891;-64
2022/01/22 11:56:49;;;;;;;55.93;35.00;;;7.50;99.90;;;;;;5075953;28;20945;-64
2022/01/22 11:59:21;;;;;;;48.20;32.57;;;7.50;99.90;;;;;;5076298;28;20475;-64
2022/01/22 12:02:03;;;;;;;53.23;34.40;;;7.50;99.90;;;;;;5076265;28;20437;-64
2022/01/22 12:05:01;;;;;;;49.80;33.77;;;7.60;99.90;;;;;;5076049;28;20512;-64
2022/01/22 12:07:29;;;;;;;51.10;33.67;;;7.60;99.90;;;;;;5075729;28;20474;-64
2022/01/22 12:10:37;;;;;;;47.93;34.57;;;7.70;99.90;;;;;;5076320;28;20528;-64
2022/01/22 12:16:07;;;;;;;46.47;33.23;;;7.60;99.90;;;;;;5075956;28;20582;-64
2022/01/22 12:18:38;;;;;;;50.47;35.87;;;7.60;99.90;;;;;;5075587;28;20946;-64
2022/01/22 12:23:56;;;;;;;55.53;37.23;;;7.50;99.90;;;;;;5075800;28;20463;-64
2022/01/22 12:26:51;;;;;;;54.90;37.50;;;7.50;99.90;;;;;;5075833;28;20465;-64
2022/01/22 12:29:39;;;;;;;51.27;35.03;;;7.50;99.90;;;;;;5075776;28;20436;-64
2022/01/22 12:32:19;;;;;;;51.63;36.47;;;7.50;99.90;;;;;;5075386;28;20895;-64
2022/01/22 12:34:57;;;;;;;52.43;35.33;;;7.50;99.90;;;;;;5075547;28;20978;-64
2022/01/22 12:37:26;;;;;;;48.37;35.63;;;7.60;99.90;;;;;;5075508;28;20428;-64
2022/01/22 12:39:54;;;;;;;50.07;34.20;;;7.70;99.90;;;;;;5075182;28;20807;-64
2022/01/22 12:42:47;;;;;;;49.03;34.00;;;7.70;99.90;;;;;;5075392;28;20473;-64
2022/01/22 12:45:14;;;;;;;50.40;33.63;;;7.70;99.90;;;;;;5075296;28;20465;-64
2022/01/22 12:47:46;;;;;;;55.10;36.63;;;7.70;99.90;;;;;;5075370;28;20456;-64
2022/01/22 12:50:14;;;;;;;46.73;34.50;;;7.80;99.90;;;;;;5075341;28;20807;-64
2022/01/22 12:52:45;;;;;;;50.83;35.33;;;7.80;99.90;;;;;;5075270;28;20448;-64
2022/01/22 12:55:20;;;;;;;53.07;35.50;;;7.70;99.90;;;;;;5075212;28;20457;-64
2022/01/22 12:57:48;;;;;;;46.67;34.20;;;7.70;99.90;;;;;;5075205;28;20444;-64
2022/01/22 13:00:18;;;;;;;50.33;34.13;;;7.70;99.90;;;;;;5075124;28;20451;-64
2022/01/22 13:02:46;;;;;;;51.43;35.27;;;7.70;99.90;;;;;;5074979;28;20474;-64
2022/01/22 13:05:14;;;;;;;52.00;35.27;;;7.70;99.90;;;;;;5074940;28;20468;-64
2022/01/22 13:07:43;;;;;;;51.47;33.67;;;7.70;99.90;;;;;;5074582;28;20461;-64
2022/01/22 13:10:10;;;;;;;58.73;35.00;;;7.80;99.90;;;;;;5074894;28;20451;-64
2022/01/22 13:12:42;;;;;;;47.57;34.10;;;7.80;99.90;;;;;;5074817;28;20662;-64
2022/01/22 13:15:11;;;;;;;47.83;34.53;;;7.80;99.90;;;;;;5074733;28;20464;-65
2022/01/22 13:17:40;;;;;;;55.30;37.90;;;7.80;99.90;;;;;;5074752;28;20449;-64
2022/01/22 13:20:08;;;;;;;56.53;37.70;;;7.70;99.90;;;;;;5074655;28;20514;-64
2022/01/22 13:22:37;;;;;;;58.40;36.73;;;7.60;99.90;;;;;;5074301;28;20460;-64
2022/01/22 13:25:07;;;;;;;54.23;36.97;;;7.70;99.90;;;;;;5074421;28;20489;-65
2022/01/22 13:27:34;;;;;;;54.77;37.50;;;7.70;99.90;;;;;;5074646;28;20531;-64
2022/01/22 13:30:01;;;;;;;58.93;36.07;;;7.70;99.90;;;;;;5074495;28;20437;-64
2022/01/22 13:32:47;;;;;;;50.13;37.27;;;7.70;99.90;;;;;;5074084;28;20449;-64
2022/01/22 13:35:25;;;;;;;51.30;36.77;;;7.70;99.90;;;;;;5074423;28;20464;-64
2022/01/22 13:49:34;;;;;;;57.70;37.47;;;7.70;99.90;;;;;;5073932;28;20497;-64
2022/01/22 13:52:03;;;;;;;58.57;40.00;;;7.70;99.90;;;;;;5074231;28;20535;-64
2022/01/22 13:54:31;;;;;;;51.17;37.30;;;7.70;99.90;;;;;;5073965;28;20461;-64
2022/01/22 13:57:05;;;;;;;52.33;37.53;;;7.70;99.90;;;;;;5073695;28;20456;-64
2022/01/22 13:59:35;;;;;;;61.67;38.23;;;7.60;99.90;;;;;;5073682;28;20919;-64
2022/01/22 14:02:35;;;;;;;55.27;38.30;;;7.70;99.90;;;;;;5073970;28;20443;-64
2022/01/22 14:05:07;;;;;;;49.13;36.80;;;7.70;99.90;;;;;;5073715;28;20492;-64
2022/01/22 14:07:39;;;;;;;53.90;37.67;;;7.70;99.90;;;;;;5073480;28;20946;-64